This is the latest recevied weather packets stored in our database for station/object DJ2KUA-6. If no packets are shown the sender has not sent any weather packets the latest 10 day(s).
| Time | Temp. | Humidity | Pressure | Rain* | Wind** | Luminosity | Snow |
|---|---|---|---|---|---|---|---|
| 1777628401 | 19.44° C | 33% | 1079 hPa | 0 mm | - | - | - |
| 1777627260 | 18.89° C | 34% | 1079 hPa | 0 mm | - | - | - |
| 1777626631 | 18.33° C | 34% | 1079 hPa | 0 mm | - | - | - |
| 1777625492 | 17.78° C | 35% | 1079 hPa | 0 mm | - | - | - |
| 1777624353 | 17.22° C | 36% | 1079 hPa | 0 mm | - | - | - |
| 1777623213 | 16.67° C | 38% | 1079 hPa | 0 mm | - | - | - |
| 1777619790 | 13.33° C | 43% | 1079 hPa | 0 mm | - | - | - |
| 1777618652 | 11.67° C | 47% | 1079 hPa | 0 mm | - | - | - |
| 1777617510 | 10° C | 50% | 1079 hPa | 0 mm | - | - | - |
| 1777616370 | 8.89° C | 53% | 1079 hPa | 0 mm | - | - | - |
| 1777615231 | 7.78° C | 56% | 1079 hPa | 0 mm | - | - | - |
| 1777614091 | 6.67° C | 60% | 1079 hPa | 0 mm | - | - | - |
| 1777612985 | 5.56° C | 62% | 1079 hPa | 0 mm | - | - | - |
| 1777612953 | 5.56° C | 62% | 1079 hPa | 0 mm | - | - | - |
| 1777611813 | 5.56° C | 61% | 1079 hPa | 0 mm | - | - | - |
| 1777610672 | 5.56° C | 58% | 1079 hPa | 0 mm | - | - | - |
| 1777609533 | 6.11° C | 58% | 1079 hPa | 0 mm | - | - | - |
| 1777608390 | 5.56° C | 58% | 1079 hPa | 0 mm | - | - | - |
| 1777607253 | 5.56° C | 57% | 1079 hPa | 0 mm | - | - | - |
| 1777606113 | 6.11° C | 55% | 1079 hPa | 0 mm | - | - | - |
| 1777604974 | 6.67° C | 53% | 1079 hPa | 0 mm | - | - | - |
| 1777602690 | 8.33° C | 48% | 1079 hPa | 0 mm | - | - | - |
| 1777601716 | 7.78° C | 49% | 1078 hPa | 0 mm | - | - | - |
| 1777601552 | 7.78° C | 49% | 1078 hPa | 0 mm | - | - | - |
| 1777599354 | 7.78° C | 51% | 1078 hPa | 0 mm | - | - | - |
* Rain latest hour (hover to see other rain measurements)
** Current wind speed in m/s (hover to see current wind gust speed)